createdAt,value
2022-10-28T00:01:22.814Z,10.90
2022-10-28T00:03:52.054Z,12.90
2022-10-28T00:06:30.184Z,11.52
2022-10-28T00:09:03.781Z,13.53
2022-10-28T00:11:34.209Z,11.88
2022-10-28T00:14:07.029Z,11.40
2022-10-28T00:16:38.165Z,10.48
2022-10-28T00:19:11.965Z,10.90
2022-10-28T00:21:40.599Z,11.30
2022-10-28T00:24:10.916Z,11.60
2022-10-28T00:26:42.293Z,12.15
2022-10-28T00:29:17.831Z,13.52
2022-10-28T00:31:45.085Z,11.80
2022-10-28T00:34:14.691Z,10.43
2022-10-28T00:36:46.761Z,16.20
2022-10-28T00:39:20.207Z,11.82
2022-10-28T00:41:49.961Z,13.30
2022-10-28T00:44:43.608Z,13.77
2022-10-28T00:47:29.972Z,14.10
2022-10-28T00:50:03.375Z,13.25
2022-10-28T00:52:31.714Z,10.95
2022-10-28T00:55:02.911Z,10.88
2022-10-28T00:57:33.634Z,13.23
2022-10-28T01:00:02.796Z,13.50
2022-10-28T01:02:31.597Z,12.70
2022-10-28T01:05:00.525Z,14.10
2022-10-28T01:07:27.490Z,12.60
2022-10-28T01:09:56.798Z,11.32
2022-10-28T01:12:43.402Z,12.93
2022-10-28T01:15:42.197Z,11.25
2022-10-28T01:18:24.843Z,15.43
2022-10-28T01:21:24.188Z,14.30
2022-10-28T01:24:08.931Z,13.23
2022-10-28T01:26:56.714Z,12.73
2022-10-28T01:29:35.382Z,12.35
2022-10-28T01:32:17.665Z,14.35
2022-10-28T01:34:54.264Z,12.77
2022-10-28T01:37:23.499Z,12.60
2022-10-28T01:39:55.822Z,12.23
2022-10-28T01:42:32.073Z,11.98
2022-10-28T01:45:07.787Z,10.55
2022-10-28T01:47:59.196Z,13.68
2022-10-28T01:50:52.688Z,12.60
2022-10-28T01:53:24.235Z,13.13
2022-10-28T01:55:55.494Z,12.07
2022-10-28T01:58:29.222Z,10.13
2022-10-28T02:00:57.811Z,13.38
2022-10-28T02:03:24.371Z,12.85
2022-10-28T02:05:57.748Z,11.47
2022-10-28T02:08:44.012Z,11.80
2022-10-28T02:11:22.635Z,11.25
2022-10-28T02:14:01.291Z,14.82
2022-10-28T02:16:33.109Z,12.75
2022-10-28T02:19:36.278Z,12.67
2022-10-28T02:22:13.559Z,9.50
2022-10-28T02:25:05.664Z,13.88
2022-10-28T02:27:35.100Z,14.82
2022-10-28T02:30:06.783Z,12.90
2022-10-28T02:32:42.714Z,10.47
2022-10-28T02:35:19.936Z,11.25
2022-10-28T02:37:51.422Z,14.07
2022-10-28T02:40:26.346Z,11.88
2022-10-28T02:42:58.531Z,15.27
2022-10-28T02:45:33.136Z,12.97
2022-10-28T02:48:05.592Z,11.10
2022-10-28T02:50:39.683Z,12.82
2022-10-28T02:53:14.173Z,13.57
2022-10-28T02:55:49.182Z,16.38
2022-10-28T02:58:18.372Z,18.20
2022-10-28T03:00:46.446Z,20.45
2022-10-28T03:03:13.851Z,13.70
2022-10-28T03:05:42.575Z,14.90
2022-10-28T03:08:09.128Z,13.50
2022-10-28T03:10:35.653Z,11.70
2022-10-28T03:13:02.552Z,18.80
2022-10-28T03:15:31.583Z,16.33
2022-10-28T03:18:00.363Z,15.73
2022-10-28T03:20:26.854Z,14.13
2022-10-28T03:22:53.511Z,15.10
2022-10-28T03:25:23.159Z,16.48
2022-10-28T03:27:49.661Z,18.55
2022-10-28T03:30:18.497Z,15.77
2022-10-28T03:32:47.747Z,17.02
2022-10-28T03:35:14.371Z,16.33
2022-10-28T03:37:43.331Z,16.30
2022-10-28T03:40:11.377Z,16.23
2022-10-28T03:42:41.214Z,18.83
2022-10-28T03:45:08.762Z,16.60
2022-10-28T03:47:37.573Z,20.73
2022-10-28T03:50:04.665Z,15.82
2022-10-28T03:52:31.186Z,20.52
2022-10-28T03:54:57.734Z,17.50
2022-10-28T03:57:24.849Z,19.08
2022-10-28T03:59:53.947Z,21.03
2022-10-28T04:02:23.017Z,18.20
2022-10-28T04:04:49.785Z,16.92
2022-10-28T04:07:16.333Z,12.38
2022-10-28T04:09:42.945Z,17.27
2022-10-28T04:12:10.878Z,16.90
2022-10-28T04:14:37.837Z,16.48
2022-10-28T04:17:05.509Z,16.83
2022-10-28T04:19:32.073Z,20.95
2022-10-28T04:21:58.582Z,16.15
2022-10-28T04:24:25.493Z,17.73
2022-10-28T04:26:52.025Z,16.77
2022-10-28T04:29:19.379Z,14.23
2022-10-28T04:31:48.623Z,17.75
2022-10-28T04:34:17.954Z,16.13
2022-10-28T04:36:44.479Z,16.13
2022-10-28T04:39:11.099Z,12.70
2022-10-28T04:41:37.630Z,15.98
2022-10-28T04:44:04.248Z,16.13
2022-10-28T04:46:30.773Z,20.75
2022-10-28T04:48:57.313Z,20.67
2022-10-28T04:51:28.383Z,23.30
2022-10-28T04:53:57.132Z,21.48
2022-10-28T04:56:23.707Z,21.52
2022-10-28T04:58:53.070Z,21.67
2022-10-28T05:01:24.380Z,23.93
2022-10-28T05:03:51.354Z,23.55
2022-10-28T05:06:20.216Z,22.60
2022-10-28T05:08:46.765Z,19.15
2022-10-28T05:11:13.665Z,17.13
2022-10-28T05:13:40.216Z,18.40
2022-10-28T05:16:07.385Z,17.70
2022-10-28T05:18:33.969Z,19.38
2022-10-28T05:21:02.877Z,18.95
2022-10-28T05:23:31.745Z,19.20
2022-10-28T05:25:58.426Z,22.90
2022-10-28T05:28:25.012Z,20.17
2022-10-28T05:30:51.924Z,23.98
2022-10-28T05:33:18.496Z,18.48
2022-10-28T05:35:47.653Z,22.25
2022-10-28T05:38:16.662Z,22.47
2022-10-28T05:40:43.288Z,19.77
2022-10-28T05:43:10.600Z,24.75
2022-10-28T05:45:37.662Z,21.13
2022-10-28T05:48:06.961Z,22.45
2022-10-28T05:50:33.873Z,21.87
2022-10-28T05:53:00.480Z,21.73
2022-10-28T05:55:31.541Z,20.55
2022-10-28T05:58:03.115Z,20.48
2022-10-28T06:00:30.952Z,22.13
2022-10-28T06:03:10.179Z,21.50
2022-10-28T06:05:41.649Z,19.23
2022-10-28T06:08:12.770Z,19.20
2022-10-28T06:10:42.664Z,21.20
2022-10-28T06:13:08.126Z,20.45
2022-10-28T06:15:37.046Z,20.33
2022-10-28T06:18:03.716Z,19.15
2022-10-28T06:20:32.534Z,22.02
2022-10-28T06:23:06.756Z,20.17
2022-10-28T06:25:36.239Z,20.30
2022-10-28T06:28:09.620Z,19.40
2022-10-28T06:30:37.013Z,20.52
2022-10-28T06:33:05.729Z,23.45
2022-10-28T06:35:32.623Z,21.42
2022-10-28T06:38:03.743Z,18.45
2022-10-28T06:40:32.415Z,18.37
2022-10-28T06:43:00.926Z,24.13
2022-10-28T06:45:31.494Z,20.92
2022-10-28T06:48:01.675Z,23.92
2022-10-28T06:50:32.185Z,22.70
2022-10-28T06:52:59.327Z,21.93
2022-10-28T06:55:27.009Z,24.33
2022-10-28T06:57:54.685Z,17.55
2022-10-28T07:00:23.880Z,19.55
2022-10-28T07:02:56.676Z,18.08
2022-10-28T07:05:26.195Z,21.57
2022-10-28T07:07:56.013Z,19.80
2022-10-28T07:10:25.108Z,21.58
2022-10-28T07:12:53.169Z,25.38
2022-10-28T07:15:23.352Z,21.73
2022-10-28T07:17:58.416Z,22.77
2022-10-28T07:20:27.105Z,21.95
2022-10-28T07:23:00.279Z,22.35
2022-10-28T07:25:33.650Z,19.92
2022-10-28T07:28:00.603Z,20.40
2022-10-28T07:30:30.277Z,21.23
2022-10-28T07:33:00.890Z,20.42
2022-10-28T07:35:30.882Z,20.17
2022-10-28T07:37:58.800Z,22.38
2022-10-28T07:40:27.987Z,19.00
2022-10-28T07:42:57.466Z,19.07
2022-10-28T07:45:26.698Z,16.98
2022-10-28T07:47:55.504Z,16.40
2022-10-28T07:50:22.536Z,16.63
2022-10-28T07:52:49.095Z,13.75
2022-10-28T07:55:17.879Z,16.93
2022-10-28T07:57:47.210Z,16.27
2022-10-28T08:00:18.627Z,16.20
2022-10-28T08:02:48.145Z,19.00
2022-10-28T08:05:14.857Z,15.40
2022-10-28T08:07:43.511Z,19.07
2022-10-28T08:10:14.796Z,16.00
2022-10-28T08:12:43.742Z,15.93
2022-10-28T08:15:10.791Z,19.75
2022-10-28T08:17:37.746Z,15.25
2022-10-28T08:20:05.688Z,22.57
2022-10-28T08:22:32.226Z,17.38
2022-10-28T08:25:03.711Z,15.15
2022-10-28T08:27:30.751Z,16.08
2022-10-28T08:29:57.284Z,15.95
2022-10-28T08:32:26.095Z,18.13
2022-10-28T08:34:55.032Z,15.25
2022-10-28T08:37:24.399Z,13.40
2022-10-28T08:39:53.618Z,16.02
2022-10-28T08:42:31.588Z,16.65
2022-10-28T08:45:01.065Z,16.13
2022-10-28T08:47:27.514Z,17.00
2022-10-28T08:50:02.659Z,19.77
2022-10-28T08:53:01.313Z,21.92
2022-10-28T08:55:41.179Z,18.70
2022-10-28T08:58:11.338Z,17.53
2022-10-28T09:00:40.732Z,18.50
2022-10-28T09:03:14.410Z,18.17
2022-10-28T09:05:50.150Z,20.08
2022-10-28T09:08:23.713Z,17.55
2022-10-28T09:11:26.373Z,22.93
2022-10-28T09:14:08.987Z,19.52
2022-10-28T09:16:49.188Z,16.73
2022-10-28T09:19:28.753Z,15.82
2022-10-28T09:22:25.394Z,15.93
2022-10-28T09:24:54.017Z,15.57
2022-10-28T09:27:49.804Z,17.13
2022-10-28T09:30:44.029Z,16.05
2022-10-28T09:33:22.711Z,15.15
2022-10-28T09:35:54.060Z,16.55
2022-10-28T09:38:40.129Z,15.50
2022-10-28T09:41:12.907Z,15.15
2022-10-28T09:43:54.951Z,15.20
2022-10-28T09:46:23.960Z,15.63
2022-10-28T09:48:55.003Z,13.85
2022-10-28T09:51:33.620Z,13.87
2022-10-28T09:54:04.420Z,13.15
2022-10-28T09:56:33.445Z,16.05
2022-10-28T09:59:04.268Z,13.40
2022-10-28T10:01:38.550Z,16.20
2022-10-28T10:04:23.342Z,15.83
2022-10-28T10:07:02.591Z,16.45
2022-10-28T10:09:35.086Z,16.90
2022-10-28T10:12:14.647Z,15.93
2022-10-28T10:14:49.482Z,15.40
2022-10-28T10:17:20.252Z,14.20
2022-10-28T10:20:19.095Z,14.88
2022-10-28T10:22:48.217Z,14.57
2022-10-28T10:25:22.939Z,15.57
2022-10-28T10:28:01.751Z,12.82
2022-10-28T10:30:48.175Z,14.00
2022-10-28T10:33:23.998Z,14.75
2022-10-28T10:36:01.133Z,13.68
2022-10-28T10:38:30.188Z,20.02
2022-10-28T10:40:57.179Z,19.05
2022-10-28T10:43:29.392Z,12.73
2022-10-28T10:46:16.573Z,15.23
2022-10-28T10:48:45.690Z,17.13
2022-10-28T10:51:25.085Z,25.67
2022-10-28T10:54:01.189Z,14.98
2022-10-28T10:56:32.695Z,10.37
2022-10-28T10:59:06.324Z,11.52
2022-10-28T11:01:38.833Z,11.77
2022-10-28T11:04:07.947Z,11.98
2022-10-28T11:06:40.890Z,12.35
2022-10-28T11:09:35.243Z,12.50
2022-10-28T11:12:15.581Z,11.60
2022-10-28T11:14:58.333Z,11.75
2022-10-28T11:17:34.063Z,11.82
2022-10-28T11:20:26.301Z,13.98
2022-10-28T11:23:19.948Z,14.07
2022-10-28T11:25:50.629Z,14.57
2022-10-28T11:28:33.487Z,15.07
2022-10-28T11:31:30.028Z,11.13
2022-10-28T11:34:20.696Z,13.40
2022-10-28T11:37:21.389Z,10.73
2022-10-28T11:40:03.210Z,11.57
2022-10-28T11:42:47.938Z,14.23
2022-10-28T11:45:23.936Z,14.35
2022-10-28T11:48:24.363Z,13.77
2022-10-28T11:50:53.784Z,11.30
2022-10-28T11:53:42.209Z,11.68
2022-10-28T11:57:07.549Z,11.55
2022-10-28T11:59:55.562Z,10.35
2022-10-28T12:02:40.752Z,11.75
2022-10-28T12:05:28.099Z,11.23
2022-10-28T12:08:23.038Z,12.35
2022-10-28T12:11:13.805Z,11.05
2022-10-28T12:13:48.808Z,10.90
2022-10-28T12:16:31.088Z,12.70
2022-10-28T12:19:03.872Z,12.17
2022-10-28T12:21:38.931Z,11.68
2022-10-28T12:24:16.679Z,11.07
2022-10-28T12:26:56.911Z,12.52
2022-10-28T12:29:27.777Z,10.60
2022-10-28T12:32:01.123Z,11.67
2022-10-28T12:37:28.714Z,9.30
2022-10-28T12:40:05.100Z,10.75
2022-10-28T12:42:44.642Z,11.10
2022-10-28T12:45:17.367Z,9.43
2022-10-28T12:48:15.312Z,9.32
2022-10-28T12:50:49.129Z,9.75
2022-10-28T12:53:17.924Z,11.75
2022-10-28T12:55:52.859Z,10.02
2022-10-28T12:58:29.719Z,9.40
2022-10-28T13:01:04.422Z,10.80
2022-10-28T13:03:35.769Z,10.10
2022-10-28T13:09:51.598Z,11.23
2022-10-28T13:12:44.729Z,12.13
2022-10-28T13:15:45.242Z,12.25
2022-10-28T13:18:34.719Z,11.70
2022-10-28T13:21:25.266Z,9.45
2022-10-28T13:24:02.269Z,10.07
2022-10-28T13:26:30.118Z,9.33
2022-10-28T13:28:59.557Z,16.38
2022-10-28T13:31:44.333Z,10.63
2022-10-28T13:34:14.757Z,12.35
2022-10-28T13:36:47.489Z,10.45
2022-10-28T13:39:27.843Z,12.13
2022-10-28T13:42:44.833Z,13.52
2022-10-28T13:45:56.624Z,12.10
2022-10-28T13:48:29.345Z,8.43
2022-10-28T13:51:15.764Z,10.75
2022-10-28T13:53:47.857Z,13.67
2022-10-28T13:56:41.667Z,11.80
2022-10-28T13:59:16.625Z,9.88
2022-10-28T14:02:35.229Z,10.40
2022-10-28T14:05:16.831Z,11.30
2022-10-28T14:07:58.698Z,8.60
2022-10-28T14:10:27.896Z,9.85
2022-10-28T14:13:01.124Z,11.40
2022-10-28T14:15:40.813Z,9.65
2022-10-28T14:18:42.269Z,8.82
2022-10-28T14:21:12.329Z,14.17
2022-10-28T14:23:47.184Z,11.02
2022-10-28T14:26:13.753Z,9.73
2022-10-28T14:28:42.277Z,11.05
2022-10-28T14:31:08.898Z,13.80
2022-10-28T14:33:44.688Z,12.50
2022-10-28T14:36:17.504Z,9.73
2022-10-28T14:38:55.500Z,10.75
2022-10-28T14:41:34.350Z,7.35
2022-10-28T14:44:25.714Z,9.80
2022-10-28T14:47:01.181Z,10.40
2022-10-28T14:49:34.192Z,12.50
2022-10-28T14:52:15.655Z,12.95
2022-10-28T14:54:44.501Z,7.95
2022-10-28T14:57:11.204Z,10.85
2022-10-28T14:59:47.572Z,9.30
2022-10-28T15:02:19.478Z,9.38
2022-10-28T15:04:48.449Z,11.02
2022-10-28T15:07:23.790Z,10.88
2022-10-28T15:09:53.539Z,11.73
2022-10-28T15:12:28.655Z,9.40
2022-10-28T15:14:57.124Z,9.65
2022-10-28T15:17:26.676Z,10.07
2022-10-28T15:19:57.921Z,8.75
2022-10-28T15:22:25.541Z,9.98
2022-10-28T15:24:54.224Z,8.80
2022-10-28T15:27:22.459Z,9.48
2022-10-28T15:29:55.882Z,6.88
2022-10-28T15:32:22.358Z,11.43
2022-10-28T15:34:49.361Z,9.27
2022-10-28T15:37:18.043Z,10.10
2022-10-28T15:39:49.300Z,11.75
2022-10-28T15:42:41.622Z,8.90
2022-10-28T15:45:22.997Z,9.77
2022-10-28T15:47:49.752Z,12.45
2022-10-28T15:50:18.552Z,12.47
2022-10-28T15:52:51.198Z,9.32
2022-10-28T15:56:02.346Z,9.18
2022-10-28T15:58:19.404Z,9.35
2022-10-28T16:00:56.880Z,10.43
2022-10-28T16:03:42.413Z,10.37
2022-10-28T16:06:33.757Z,9.60
2022-10-28T16:09:01.528Z,10.18
2022-10-28T16:11:31.562Z,9.25
2022-10-28T16:13:58.703Z,7.50
2022-10-28T16:16:29.001Z,8.97
2022-10-28T16:19:11.387Z,9.60
2022-10-28T16:21:41.147Z,9.77
2022-10-28T16:24:10.372Z,10.88
2022-10-28T16:26:39.425Z,8.65
2022-10-28T16:29:05.998Z,9.20
2022-10-28T16:31:32.658Z,9.70
2022-10-28T16:34:01.829Z,10.35
2022-10-28T16:36:28.615Z,10.73
2022-10-28T16:38:57.638Z,11.70
2022-10-28T16:41:26.909Z,8.83
2022-10-28T16:43:56.054Z,9.32
2022-10-28T16:46:25.245Z,7.90
2022-10-28T16:48:56.345Z,10.18
2022-10-28T16:51:22.923Z,10.35
2022-10-28T16:53:51.911Z,9.07
2022-10-28T16:56:18.505Z,8.63
2022-10-28T16:58:48.076Z,9.13
2022-10-28T17:01:22.597Z,12.02
2022-10-28T17:03:51.325Z,12.77
2022-10-28T17:06:17.823Z,10.40
2022-10-28T17:09:02.362Z,8.77
2022-10-28T17:13:57.646Z,9.88
2022-10-28T17:16:25.357Z,10.00
2022-10-28T17:18:51.947Z,9.87
2022-10-28T17:21:18.765Z,8.93
2022-10-28T17:23:47.634Z,8.30
2022-10-28T17:26:16.825Z,11.80
2022-10-28T17:28:45.572Z,24.75
2022-10-28T17:31:12.144Z,9.97
2022-10-28T17:33:38.702Z,10.40
2022-10-28T17:36:09.006Z,7.07
2022-10-28T17:38:38.062Z,10.77
2022-10-28T17:41:06.992Z,10.60
2022-10-28T17:43:35.991Z,7.77
2022-10-28T17:46:06.803Z,11.95
2022-10-28T17:48:36.163Z,9.60
2022-10-28T17:51:02.721Z,11.40
2022-10-28T17:53:29.519Z,8.70
2022-10-28T17:56:00.549Z,15.90
2022-10-28T17:58:29.587Z,9.77
2022-10-28T18:01:02.604Z,9.43
2022-10-28T18:03:35.542Z,8.40
2022-10-28T18:06:13.131Z,11.00
2022-10-28T18:08:42.144Z,12.47
2022-10-28T18:11:12.696Z,9.90
2022-10-28T18:13:42.134Z,14.88
2022-10-28T18:16:17.216Z,9.52
2022-10-28T18:18:44.033Z,10.30
2022-10-28T18:21:12.010Z,13.53
2022-10-28T18:23:41.498Z,10.50
2022-10-28T18:26:12.418Z,11.07
2022-10-28T18:28:42.454Z,9.85
2022-10-28T18:31:19.997Z,8.80
2022-10-28T18:33:47.111Z,9.97
2022-10-28T18:36:23.937Z,10.27
2022-10-28T18:38:54.040Z,8.57
2022-10-28T18:41:24.033Z,10.32
2022-10-28T18:44:00.716Z,10.88
2022-10-28T18:46:28.938Z,8.93
2022-10-28T18:49:02.118Z,10.98
2022-10-28T18:51:28.810Z,12.88
2022-10-28T18:53:56.582Z,14.25
2022-10-28T18:56:26.513Z,9.93
2022-10-28T18:58:53.134Z,10.50
2022-10-28T19:01:23.797Z,11.05
2022-10-28T19:03:57.263Z,11.68
2022-10-28T19:06:24.959Z,10.00
2022-10-28T19:08:58.559Z,9.93
2022-10-28T19:11:30.356Z,9.87
2022-10-28T19:14:02.273Z,10.73
2022-10-28T19:16:30.756Z,13.00
2022-10-28T19:18:59.279Z,11.43
2022-10-28T19:21:27.279Z,12.68
2022-10-28T19:23:54.835Z,8.63
2022-10-28T19:26:23.024Z,12.98
2022-10-28T19:28:50.419Z,12.18
2022-10-28T19:31:23.499Z,10.57
2022-10-28T19:33:52.165Z,10.43
2022-10-28T19:36:23.968Z,15.73
2022-10-28T19:38:54.007Z,9.23
2022-10-28T19:41:23.165Z,11.07
2022-10-28T19:43:56.834Z,8.93
2022-10-28T19:46:26.941Z,8.38
2022-10-28T19:48:55.642Z,12.43
2022-10-28T19:51:29.839Z,10.70
2022-10-28T19:53:59.343Z,12.13
2022-10-28T19:56:27.609Z,11.82
2022-10-28T19:58:56.369Z,17.65
2022-10-28T20:01:24.839Z,13.60
2022-10-28T20:03:52.620Z,15.52
2022-10-28T20:06:24.427Z,13.23
2022-10-28T20:08:51.015Z,13.15
2022-10-28T20:11:24.689Z,13.63
2022-10-28T20:13:57.686Z,9.93
2022-10-28T20:16:27.964Z,12.57
2022-10-28T20:18:57.826Z,10.93
2022-10-28T20:21:26.701Z,12.30
2022-10-28T20:23:56.567Z,13.07
2022-10-28T20:26:27.624Z,13.70
2022-10-28T20:28:57.015Z,14.10
2022-10-28T20:31:26.586Z,11.48
2022-10-28T20:33:55.377Z,14.13
2022-10-28T20:36:39.283Z,9.73
2022-10-28T20:39:22.107Z,10.47
2022-10-28T20:41:53.796Z,11.15
2022-10-28T20:44:26.357Z,11.90
2022-10-28T20:46:55.240Z,12.13
2022-10-28T20:49:23.998Z,11.85
2022-10-28T20:51:53.040Z,10.40
2022-10-28T20:54:22.031Z,11.32
2022-10-28T20:56:50.833Z,11.60
2022-10-28T20:59:19.658Z,10.70
2022-10-28T21:01:49.649Z,13.05
2022-10-28T21:04:16.311Z,11.10
2022-10-28T21:06:45.110Z,11.23
2022-10-28T21:09:12.196Z,10.85
2022-10-28T21:11:38.912Z,13.45
2022-10-28T21:14:05.908Z,13.60
2022-10-28T21:16:33.413Z,11.33
2022-10-28T21:18:59.991Z,11.23
2022-10-28T21:21:30.351Z,8.70
2022-10-28T21:23:56.938Z,11.52
2022-10-28T21:26:23.511Z,12.30
2022-10-28T21:28:54.861Z,12.20
2022-10-28T21:31:23.970Z,12.93
2022-10-28T21:33:53.853Z,12.85
2022-10-28T21:36:22.252Z,11.90
2022-10-28T21:38:57.939Z,12.52
2022-10-28T21:41:29.234Z,13.00
2022-10-28T21:43:58.033Z,11.50
2022-10-28T21:46:24.673Z,11.10
2022-10-28T21:48:52.535Z,12.20
2022-10-28T21:51:19.506Z,12.27
2022-10-28T21:53:49.275Z,12.03
2022-10-28T21:56:20.133Z,10.52
2022-10-28T21:58:53.030Z,14.32
2022-10-28T22:01:25.659Z,11.68
2022-10-28T22:03:56.685Z,11.80
2022-10-28T22:06:23.668Z,11.77
2022-10-28T22:08:56.065Z,12.43
2022-10-28T22:11:24.136Z,11.50
2022-10-28T22:14:02.429Z,10.15
2022-10-28T22:16:33.299Z,12.05
2022-10-28T22:19:07.650Z,13.33
2022-10-28T22:21:40.065Z,11.18
2022-10-28T22:24:09.323Z,11.02
2022-10-28T22:26:35.875Z,11.38
2022-10-28T22:29:05.023Z,13.45
2022-10-28T22:31:32.688Z,12.10
2022-10-28T22:34:00.117Z,11.15
2022-10-28T22:36:31.545Z,11.43
2022-10-28T22:39:00.319Z,12.95
2022-10-28T22:41:29.312Z,15.85
2022-10-28T22:43:58.648Z,11.00
2022-10-28T22:46:28.224Z,13.13
2022-10-28T22:48:55.458Z,12.88
2022-10-28T22:51:22.698Z,11.45
2022-10-28T22:53:49.739Z,10.50
2022-10-28T22:56:21.567Z,12.23
2022-10-28T22:58:52.286Z,10.68
2022-10-28T23:01:20.542Z,10.10
2022-10-28T23:03:49.749Z,11.65
2022-10-28T23:06:18.977Z,10.75
2022-10-28T23:08:45.913Z,12.07
2022-10-28T23:11:14.052Z,11.43
2022-10-28T23:13:40.743Z,10.93
2022-10-28T23:16:09.272Z,13.60
2022-10-28T23:18:36.999Z,15.25
2022-10-28T23:21:09.729Z,16.13
2022-10-28T23:23:36.346Z,14.68
2022-10-28T23:26:03.424Z,14.00
2022-10-28T23:28:30.031Z,14.70
2022-10-28T23:31:04.117Z,12.02
2022-10-28T23:33:32.052Z,13.50
2022-10-28T23:36:00.012Z,13.20
2022-10-28T23:38:26.894Z,10.23
2022-10-28T23:41:00.747Z,15.63
2022-10-28T23:43:29.210Z,17.92
2022-10-28T23:45:56.623Z,36.13
2022-10-28T23:48:24.036Z,225.05
2022-10-28T23:50:51.268Z,327.48
2022-10-28T23:53:18.690Z,309.50
2022-10-28T23:55:47.367Z,276.73
2022-10-28T23:58:15.266Z,192.13
